createdAt,value
2023-05-25T00:01:36.155Z,98948.44
2023-05-25T00:04:38.819Z,98949.88
2023-05-25T00:07:41.488Z,98950.31
2023-05-25T00:10:45.454Z,98953.72
2023-05-25T00:13:48.395Z,98950.97
2023-05-25T00:16:51.554Z,98952.25
2023-05-25T00:19:58.249Z,98948.22
2023-05-25T00:23:02.231Z,98945.03
2023-05-25T00:26:06.410Z,98957.91
2023-05-25T00:29:09.015Z,98948.09
2023-05-25T00:32:11.657Z,98952.66
2023-05-25T00:35:14.353Z,98957.22
2023-05-25T00:38:18.303Z,98952.88
2023-05-25T00:41:22.495Z,98949.19
2023-05-25T00:44:25.204Z,98952.25
2023-05-25T00:47:28.753Z,98945.81
2023-05-25T00:50:39.010Z,98946.44
2023-05-25T00:53:41.611Z,98944.03
2023-05-25T00:56:48.708Z,98942.91
2023-05-25T00:59:52.869Z,98931.50
2023-05-25T01:02:57.141Z,98930.81
2023-05-25T01:06:00.816Z,98928.72
2023-05-25T01:09:04.563Z,98937.91
2023-05-25T01:12:09.142Z,98939.16
2023-05-25T01:15:12.790Z,98927.69
2023-05-25T01:18:15.569Z,98924.91
2023-05-25T01:21:22.086Z,98925.72
2023-05-25T01:24:31.967Z,98927.50
2023-05-25T01:27:39.487Z,98927.31
2023-05-25T01:30:43.393Z,98930.84
2023-05-25T01:33:46.862Z,98921.03
2023-05-25T01:36:51.419Z,98919.56
2023-05-25T01:39:54.409Z,98931.75
2023-05-25T01:42:57.202Z,98934.75
2023-05-25T01:46:07.850Z,98938.75
2023-05-25T01:49:16.914Z,98941.13
2023-05-25T01:52:25.125Z,98944.78
2023-05-25T01:55:30.074Z,98943.28
2023-05-25T01:58:36.803Z,98933.16
2023-05-25T02:01:40.337Z,98930.25
2023-05-25T02:04:43.866Z,98943.22
2023-05-25T02:07:47.743Z,98936.47
2023-05-25T02:10:50.649Z,98937.41
2023-05-25T02:13:53.247Z,98934.00
2023-05-25T02:16:57.706Z,98927.84
2023-05-25T02:20:00.562Z,98925.25
2023-05-25T02:23:06.746Z,98919.78
2023-05-25T02:26:09.424Z,98925.69
2023-05-25T02:29:12.242Z,98919.88
2023-05-25T02:32:14.928Z,98919.38
2023-05-25T02:35:17.739Z,98915.84
2023-05-25T02:38:21.707Z,98914.53
2023-05-25T02:41:26.340Z,98919.13
2023-05-25T02:44:29.021Z,98911.91
2023-05-25T02:47:31.618Z,98922.47
2023-05-25T02:50:34.415Z,98916.50
2023-05-25T02:53:38.398Z,98926.50
2023-05-25T02:56:42.383Z,98922.56
2023-05-25T02:59:44.999Z,98932.88
2023-05-25T03:02:48.950Z,98927.81
2023-05-25T03:05:51.646Z,98919.13
2023-05-25T03:08:55.712Z,98942.47
2023-05-25T03:11:58.454Z,98928.13
2023-05-25T03:15:01.102Z,98936.13
2023-05-25T03:18:04.015Z,98944.34
2023-05-25T03:21:06.993Z,98941.19
2023-05-25T03:24:11.071Z,98950.50
2023-05-25T03:27:13.720Z,98947.25
2023-05-25T03:30:16.344Z,98952.72
2023-05-25T03:33:18.939Z,98942.91
2023-05-25T03:36:22.264Z,98942.44
2023-05-25T03:39:26.712Z,98940.00
2023-05-25T03:42:29.538Z,98938.38
2023-05-25T03:45:32.244Z,98938.38
2023-05-25T03:48:34.867Z,98944.84
2023-05-25T03:51:37.720Z,98934.13
2023-05-25T03:54:41.900Z,98946.66
2023-05-25T03:57:44.685Z,98958.63
2023-05-25T04:00:49.202Z,98957.22
2023-05-25T04:03:52.950Z,98964.09
2023-05-25T04:06:55.973Z,98962.09
2023-05-25T04:10:00.226Z,98968.41
2023-05-25T04:13:02.780Z,98973.53
2023-05-25T04:16:05.942Z,98970.25
2023-05-25T04:19:08.864Z,98979.16
2023-05-25T04:22:11.519Z,98980.03
2023-05-25T04:25:17.152Z,98971.66
2023-05-25T04:28:19.800Z,98970.38
2023-05-25T04:31:22.863Z,98966.75
2023-05-25T04:34:26.259Z,98970.31
2023-05-25T04:37:30.611Z,98975.66
2023-05-25T04:40:35.462Z,98978.00
2023-05-25T04:43:40.308Z,98976.28
2023-05-25T04:46:46.519Z,98984.38
2023-05-25T04:49:49.183Z,98978.00
2023-05-25T04:52:51.781Z,98978.69
2023-05-25T04:55:55.743Z,98983.41
2023-05-25T04:58:58.749Z,98984.41
2023-05-25T05:02:01.570Z,98988.44
2023-05-25T05:05:04.344Z,98989.59
2023-05-25T05:08:07.087Z,99000.09
2023-05-25T05:11:11.556Z,98991.38
2023-05-25T05:14:14.455Z,98990.56
2023-05-25T05:17:17.612Z,99006.16
2023-05-25T05:20:20.484Z,98999.56
2023-05-25T05:23:23.940Z,99011.97
2023-05-25T05:26:28.109Z,99019.69
2023-05-25T05:29:30.819Z,99020.47
2023-05-25T05:32:33.375Z,99025.59
2023-05-25T05:35:36.010Z,99022.66
2023-05-25T05:38:40.414Z,99023.09
2023-05-25T05:41:45.600Z,99028.72
2023-05-25T05:44:48.313Z,99037.06
2023-05-25T05:47:51.054Z,99021.31
2023-05-25T05:50:54.012Z,99028.56
2023-05-25T05:53:56.758Z,99033.00
2023-05-25T05:57:01.440Z,99039.56
2023-05-25T06:00:06.839Z,99042.13
2023-05-25T06:03:09.628Z,99047.06
2023-05-25T06:06:12.866Z,99045.16
2023-05-25T06:09:15.742Z,99053.97
2023-05-25T06:12:19.759Z,99054.81
2023-05-25T06:15:22.549Z,99054.06
2023-05-25T06:18:25.534Z,99064.56
2023-05-25T06:21:28.101Z,99056.59
2023-05-25T06:24:31.408Z,99056.94
2023-05-25T06:27:35.436Z,99063.34
2023-05-25T06:30:38.367Z,99049.25
2023-05-25T06:33:41.094Z,99046.69
2023-05-25T06:36:43.732Z,99060.78
2023-05-25T06:39:46.313Z,99062.56
2023-05-25T06:42:50.377Z,99061.09
2023-05-25T06:45:52.986Z,99064.09
2023-05-25T06:48:55.563Z,99060.75
2023-05-25T06:51:58.290Z,99063.44
2023-05-25T06:55:01.101Z,99056.47
2023-05-25T06:58:05.036Z,99070.09
2023-05-25T07:01:07.931Z,99068.06
2023-05-25T07:04:11.496Z,99076.19
2023-05-25T07:07:14.431Z,99083.16
2023-05-25T07:10:17.055Z,99077.41
2023-05-25T07:13:21.124Z,99080.66
2023-05-25T07:16:23.836Z,99074.78
2023-05-25T07:19:26.517Z,99082.06
2023-05-25T07:22:29.123Z,99086.13
2023-05-25T07:25:31.903Z,99085.63
2023-05-25T07:28:36.382Z,99089.47
2023-05-25T07:31:39.011Z,99089.22
2023-05-25T07:34:42.638Z,99088.06
2023-05-25T07:37:45.611Z,99082.69
2023-05-25T07:40:49.219Z,99094.16
2023-05-25T07:43:53.450Z,99096.72
2023-05-25T07:46:56.284Z,99101.38
2023-05-25T07:49:59.041Z,99095.00
2023-05-25T07:53:01.881Z,99099.28
2023-05-25T07:56:06.250Z,99092.88
2023-05-25T07:59:11.237Z,99092.81
2023-05-25T08:02:14.076Z,99092.72
2023-05-25T08:05:16.859Z,99085.03
2023-05-25T08:08:20.212Z,99086.38
2023-05-25T08:11:23.911Z,99081.16
2023-05-25T08:14:28.455Z,99082.19
2023-05-25T08:17:31.041Z,99081.97
2023-05-25T08:20:33.989Z,99078.84
2023-05-25T08:23:42.487Z,99074.09
2023-05-25T08:29:57.034Z,99073.16
2023-05-25T08:32:59.707Z,99088.25
2023-05-25T08:36:02.359Z,99087.63
2023-05-25T08:39:07.946Z,99094.31
2023-05-25T08:42:10.750Z,99087.75
2023-05-25T08:45:30.354Z,99100.28
2023-05-25T08:48:42.463Z,99095.84
2023-05-25T08:51:49.796Z,99099.59
2023-05-25T08:54:54.429Z,99091.28
2023-05-25T08:58:00.905Z,99099.56
2023-05-25T09:01:07.461Z,99088.00
2023-05-25T09:04:10.405Z,99089.84
2023-05-25T09:07:13.357Z,99087.47
2023-05-25T09:10:16.183Z,99085.19
2023-05-25T09:13:22.440Z,99087.31
2023-05-25T09:16:27.282Z,99086.19
2023-05-25T09:19:30.221Z,99085.59
2023-05-25T09:22:32.940Z,99090.72
2023-05-25T09:25:36.452Z,99096.34
2023-05-25T09:28:46.596Z,99089.88
2023-05-25T09:31:50.806Z,99085.19
2023-05-25T09:34:53.549Z,99089.59
2023-05-25T09:37:56.334Z,99096.38
2023-05-25T09:40:59.130Z,99097.19
2023-05-25T09:44:10.946Z,99094.38
2023-05-25T09:47:17.024Z,99089.63
2023-05-25T09:50:19.852Z,99095.59
2023-05-25T09:53:22.485Z,99097.94
2023-05-25T09:56:25.127Z,99095.53
2023-05-25T09:59:28.161Z,99089.63
2023-05-25T10:02:32.141Z,99094.38
2023-05-25T10:05:34.748Z,99093.56
2023-05-25T10:08:37.421Z,99086.84
2023-05-25T10:11:40.298Z,99090.41
2023-05-25T10:14:44.146Z,99094.41
2023-05-25T10:17:53.691Z,99098.78
2023-05-25T10:21:03.277Z,99103.09
2023-05-25T10:24:13.561Z,99097.16
2023-05-25T10:27:27.099Z,99090.44
2023-05-25T10:30:30.449Z,99079.66
2023-05-25T10:33:35.008Z,99089.09
2023-05-25T10:36:38.577Z,99087.91
2023-05-25T10:39:42.941Z,99085.28
2023-05-25T10:42:46.372Z,99091.72
2023-05-25T10:45:49.554Z,99076.56
2023-05-25T10:48:53.484Z,99078.91
2023-05-25T10:51:59.731Z,99074.56
2023-05-25T10:55:04.830Z,99078.66
2023-05-25T10:58:11.601Z,99084.53
2023-05-25T11:01:16.553Z,99093.69
2023-05-25T11:04:20.837Z,99088.81
2023-05-25T11:07:23.431Z,99083.56
2023-05-25T11:10:54.531Z,99083.28
2023-05-25T11:13:57.264Z,99083.94
2023-05-25T11:17:08.268Z,99083.06
2023-05-25T11:20:22.959Z,99086.50
2023-05-25T11:23:26.105Z,99079.59
2023-05-25T11:26:29.172Z,99072.72
2023-05-25T11:29:33.249Z,99072.44
2023-05-25T11:32:39.633Z,99072.75
2023-05-25T11:35:45.844Z,99059.00
2023-05-25T11:39:02.556Z,99063.75
2023-05-25T11:42:11.249Z,99062.03
2023-05-25T11:45:15.547Z,99073.66
2023-05-25T11:48:18.478Z,99064.03
2023-05-25T11:51:24.576Z,99063.56
2023-05-25T11:54:28.382Z,99060.53
2023-05-25T11:57:31.113Z,99060.63
2023-05-25T12:00:34.084Z,99066.44
2023-05-25T12:03:37.036Z,99062.91
2023-05-25T12:06:41.223Z,99060.19
2023-05-25T12:09:43.896Z,99059.19
2023-05-25T12:12:48.155Z,99050.81
2023-05-25T12:15:52.475Z,99053.06
2023-05-25T12:18:55.602Z,99052.69
2023-05-25T12:21:59.629Z,99061.72
2023-05-25T12:25:03.571Z,99053.81
2023-05-25T12:28:12.261Z,99052.16
2023-05-25T12:31:22.051Z,99061.66
2023-05-25T12:34:28.576Z,99068.38
2023-05-25T12:37:32.885Z,99051.63
2023-05-25T12:40:35.572Z,99055.25
2023-05-25T12:43:39.809Z,99057.63
2023-05-25T12:46:42.438Z,99057.16
2023-05-25T12:49:46.536Z,99059.16
2023-05-25T12:52:50.543Z,99062.44
2023-05-25T12:56:02.105Z,99063.16
2023-05-25T12:59:15.493Z,99057.22
2023-05-25T13:02:18.372Z,99049.97
2023-05-25T13:05:22.281Z,99050.34
2023-05-25T13:08:26.218Z,99056.81
2023-05-25T13:11:28.776Z,99047.28
2023-05-25T13:14:31.508Z,99056.91
2023-05-25T13:17:34.273Z,99049.53
2023-05-25T13:20:37.094Z,99038.19
2023-05-25T13:23:41.103Z,99043.44
2023-05-25T13:26:46.459Z,99043.84
2023-05-25T13:29:50.026Z,99032.25
2023-05-25T13:32:52.807Z,99036.34
2023-05-25T13:36:08.067Z,99035.69
2023-05-25T13:39:13.685Z,99027.72
2023-05-25T13:42:16.625Z,99029.25
2023-05-25T13:45:19.668Z,99028.03
2023-05-25T13:48:22.575Z,99031.75
2023-05-25T13:51:25.293Z,99033.69
2023-05-25T13:54:29.350Z,99034.63
2023-05-25T13:57:32.004Z,99029.97
2023-05-25T14:00:34.924Z,99030.28
2023-05-25T14:03:38.549Z,99026.44
2023-05-25T14:06:41.184Z,99012.84
2023-05-25T14:09:45.632Z,99009.91
2023-05-25T14:12:48.315Z,99010.03
2023-05-25T14:15:51.108Z,99011.50
2023-05-25T14:18:53.857Z,99002.16
2023-05-25T14:22:11.623Z,98997.41
2023-05-25T14:25:17.261Z,99002.72
2023-05-25T14:28:19.899Z,98997.91
2023-05-25T14:31:22.789Z,98994.16
2023-05-25T14:34:25.550Z,99003.97
2023-05-25T14:37:28.309Z,99008.63
2023-05-25T14:40:32.636Z,99006.66
2023-05-25T14:43:35.616Z,99009.59
2023-05-25T14:46:38.529Z,99009.25
2023-05-25T14:49:41.486Z,99007.59
2023-05-25T14:52:44.322Z,99006.50
2023-05-25T14:55:48.443Z,99008.03
2023-05-25T14:58:51.133Z,99013.22
2023-05-25T15:01:53.704Z,99006.06
2023-05-25T15:04:56.338Z,99002.38
2023-05-25T15:07:59.438Z,98991.69
2023-05-25T15:11:03.302Z,98997.69
2023-05-25T15:14:05.854Z,98993.91
2023-05-25T15:17:08.453Z,98994.94
2023-05-25T15:20:12.483Z,98985.66
2023-05-25T15:23:15.301Z,98989.38
2023-05-25T15:26:19.406Z,98985.25
2023-05-25T15:29:22.221Z,98994.38
2023-05-25T15:32:24.862Z,98990.34
2023-05-25T15:35:31.353Z,98997.91
2023-05-25T15:38:33.938Z,98993.84
2023-05-25T15:41:38.003Z,98988.50
2023-05-25T15:44:41.059Z,98981.56
2023-05-25T15:47:43.924Z,98982.38
2023-05-25T15:50:47.065Z,98989.44
2023-05-25T15:53:49.695Z,98986.38
2023-05-25T15:56:53.877Z,98992.31
2023-05-25T15:59:56.495Z,98978.03
2023-05-25T16:02:59.074Z,98982.88
2023-05-25T16:06:02.254Z,98985.25
2023-05-25T16:09:05.114Z,98982.84
2023-05-25T16:12:09.572Z,98991.88
2023-05-25T16:15:12.463Z,98979.03
2023-05-25T16:18:16.644Z,98980.19
2023-05-25T16:21:19.288Z,98978.47
2023-05-25T16:24:21.946Z,98985.28
2023-05-25T16:27:26.127Z,98985.72
2023-05-25T16:30:28.742Z,98988.75
2023-05-25T16:33:31.315Z,98970.81
2023-05-25T16:36:33.967Z,98974.66
2023-05-25T16:39:36.906Z,98968.09
2023-05-25T16:42:40.901Z,98973.22
2023-05-25T16:45:43.853Z,98979.34
2023-05-25T16:48:46.557Z,98975.38
2023-05-25T16:51:49.308Z,98971.63
2023-05-25T16:54:51.855Z,98972.47
2023-05-25T16:57:55.926Z,98973.28
2023-05-25T17:00:58.588Z,98970.78
2023-05-25T17:04:01.376Z,98968.06
2023-05-25T17:07:04.187Z,98968.03
2023-05-25T17:10:08.104Z,98956.94
2023-05-25T17:13:12.140Z,98948.94
2023-05-25T17:16:14.927Z,98954.63
2023-05-25T17:19:17.539Z,98960.34
2023-05-25T17:22:20.107Z,98952.72
2023-05-25T17:25:22.939Z,98954.91
2023-05-25T17:28:28.733Z,98967.25
2023-05-25T17:31:31.409Z,98956.88
2023-05-25T17:34:34.121Z,98960.31
2023-05-25T17:37:36.650Z,98968.44
2023-05-25T17:40:39.235Z,98965.94
2023-05-25T17:43:43.280Z,98970.69
2023-05-25T17:46:45.950Z,98977.06
2023-05-25T17:49:48.636Z,98979.19
2023-05-25T17:52:51.217Z,98979.00
2023-05-25T17:55:54.032Z,98971.69
2023-05-25T17:58:57.837Z,98979.09
2023-05-25T18:02:00.552Z,98988.34
2023-05-25T18:05:03.317Z,98989.25
2023-05-25T18:08:06.093Z,98990.13
2023-05-25T18:11:08.803Z,98997.78
2023-05-25T18:14:12.823Z,98991.81
2023-05-25T18:17:15.555Z,98995.09
2023-05-25T18:20:18.332Z,98992.31
2023-05-25T18:23:22.151Z,98999.94
2023-05-25T18:26:24.818Z,99004.38
2023-05-25T18:29:28.692Z,99006.34
2023-05-25T18:32:31.293Z,99012.34
2023-05-25T18:35:33.970Z,99006.78
2023-05-25T18:38:36.672Z,99005.56
2023-05-25T18:41:39.538Z,99013.94
2023-05-25T18:44:43.325Z,99020.66
2023-05-25T18:47:46.031Z,99024.22
2023-05-25T18:50:48.956Z,99025.38
2023-05-25T18:53:51.614Z,99023.31
2023-05-25T18:56:54.176Z,99022.44
2023-05-25T18:59:58.138Z,99022.38
2023-05-25T19:03:00.849Z,99022.69
2023-05-25T19:06:03.876Z,99030.94
2023-05-25T19:09:06.520Z,99028.47
2023-05-25T19:12:09.584Z,99037.09
2023-05-25T19:15:14.217Z,99043.41
2023-05-25T19:18:17.041Z,99037.22
2023-05-25T19:21:19.632Z,99043.41
2023-05-25T19:24:22.189Z,99044.47
2023-05-25T19:27:25.268Z,99052.34
2023-05-25T19:30:29.334Z,99052.50
2023-05-25T19:33:31.892Z,99056.63
2023-05-25T19:36:34.492Z,99065.47
2023-05-25T19:39:37.058Z,99061.66
2023-05-25T19:42:39.859Z,99056.59
2023-05-25T19:45:44.775Z,99067.84
2023-05-25T19:48:47.487Z,99073.13
2023-05-25T19:51:50.137Z,99072.84
2023-05-25T19:54:52.762Z,99072.84
2023-05-25T19:57:55.332Z,99059.53
2023-05-25T20:00:59.433Z,99069.97
2023-05-25T20:04:02.092Z,99068.25
2023-05-25T20:07:04.663Z,99086.59
2023-05-25T20:10:07.994Z,99084.38
2023-05-25T20:13:10.855Z,99089.59
2023-05-25T20:16:15.023Z,99087.03
2023-05-25T20:19:18.964Z,99090.81
2023-05-25T20:22:21.967Z,99091.09
2023-05-25T20:25:24.773Z,99094.16
2023-05-25T20:28:27.378Z,99095.22
2023-05-25T20:31:31.322Z,99095.69
2023-05-25T20:34:33.994Z,99103.44
2023-05-25T20:37:36.625Z,99102.31
2023-05-25T20:40:39.252Z,99101.06
2023-05-25T20:43:42.084Z,99109.88
2023-05-25T20:46:45.947Z,99113.66
2023-05-25T20:49:48.509Z,99113.53
2023-05-25T20:52:51.067Z,99113.38
2023-05-25T20:55:53.668Z,99120.31
2023-05-25T20:58:57.504Z,99116.16
2023-05-25T21:02:02.243Z,99119.16
2023-05-25T21:05:05.270Z,99114.25
2023-05-25T21:08:07.896Z,99109.34
2023-05-25T21:11:10.712Z,99114.63
2023-05-25T21:14:13.302Z,99110.44
2023-05-25T21:17:19.537Z,99112.22
2023-05-25T21:20:22.295Z,99114.44
2023-05-25T21:23:25.259Z,99117.97
2023-05-25T21:26:27.982Z,99121.06
2023-05-25T21:29:30.666Z,99117.88
2023-05-25T21:32:34.857Z,99119.31
2023-05-25T21:35:37.603Z,99120.38
2023-05-25T21:38:40.317Z,99110.41
2023-05-25T21:41:42.813Z,99117.06
2023-05-25T21:44:45.334Z,99122.38
2023-05-25T21:47:49.407Z,99124.47
2023-05-25T21:50:52.058Z,99132.25
2023-05-25T21:53:54.728Z,99131.81
2023-05-25T21:56:57.517Z,99135.16
2023-05-25T22:00:00.090Z,99133.44
2023-05-25T22:03:04.192Z,99137.34
2023-05-25T22:06:07.140Z,99146.66
2023-05-25T22:09:09.907Z,99146.63
2023-05-25T22:12:13.101Z,99146.31
2023-05-25T22:15:15.650Z,99142.63
2023-05-25T22:18:19.645Z,99143.44
2023-05-25T22:21:22.347Z,99141.25
2023-05-25T22:24:24.927Z,99139.09
2023-05-25T22:27:27.520Z,99146.88
2023-05-25T22:30:30.153Z,99146.88
2023-05-25T22:33:34.174Z,99144.69
2023-05-25T22:36:37.164Z,99149.31
2023-05-25T22:39:39.956Z,99155.25
2023-05-25T22:42:45.006Z,99151.84
2023-05-25T22:45:47.894Z,99160.09
2023-05-25T22:48:51.967Z,99150.69
2023-05-25T22:51:54.647Z,99157.22
2023-05-25T22:54:57.292Z,99148.03
2023-05-25T22:57:59.969Z,99151.13
2023-05-25T23:01:02.679Z,99152.16
2023-05-25T23:04:06.992Z,99155.69
2023-05-25T23:07:09.813Z,99156.75
2023-05-25T23:10:12.429Z,99160.88
2023-05-25T23:13:15.429Z,99162.81
2023-05-25T23:16:18.681Z,99162.56
2023-05-25T23:19:23.471Z,99165.53
2023-05-25T23:22:26.109Z,99161.88
2023-05-25T23:25:28.686Z,99163.13
2023-05-25T23:28:31.383Z,99169.44
2023-05-25T23:31:34.151Z,99171.03
2023-05-25T23:34:38.088Z,99166.59
2023-05-25T23:37:40.677Z,99171.75
2023-05-25T23:40:43.216Z,99166.91
2023-05-25T23:43:46.506Z,99174.97
2023-05-25T23:46:49.170Z,99168.88
2023-05-25T23:49:53.091Z,99167.38
2023-05-25T23:52:55.711Z,99181.34
2023-05-25T23:55:58.356Z,99179.75
2023-05-25T23:59:01.010Z,99178.38
